Time;durP1;ratioP1;P1;durP2;ratioP2;P2;SDS_P1;SDS_P2;PMS_P1;PMS_P2;Temp;Humidity;BMP_temperature;BMP_pressure;BME280_temperature;BME280_humidity;BME280_pressure;Samples;Min_cycle;Max_cycle;Signal;HPM_P1;HPM_P2
2021/05/03 00:00:00;;;;;;;7.22;6.55;;;;;;;14.95;79.98;98408.67;1767109;79;21780;-51
2021/05/03 00:02:27;;;;;;;7.72;6.67;;;;;;;14.94;79.98;98403.38;1766189;79;21100;-50
2021/05/03 00:04:55;;;;;;;11.12;8.00;;;;;;;14.94;79.97;98408.80;1767011;79;21545;-50
2021/05/03 00:07:22;;;;;;;12.07;8.33;;;;;;;14.92;79.96;98398.09;1767301;79;21129;-52
2021/05/03 00:09:49;;;;;;;12.45;7.17;;;;;;;14.93;79.90;98401.16;1765721;79;22063;-49
2021/05/03 00:12:16;;;;;;;6.47;5.78;;;;;;;14.91;79.87;98400.92;1766772;79;21559;-51
2021/05/03 00:14:45;;;;;;;10.50;5.22;;;;;;;14.88;79.79;98405.28;1766108;79;21182;-50
2021/05/03 00:17:14;;;;;;;9.75;4.50;;;;;;;14.86;79.83;98412.18;1766339;79;21211;-50
2021/05/03 00:19:43;;;;;;;6.28;4.42;;;;;;;14.85;79.88;98414.52;1763890;79;21111;-51
2021/05/03 00:22:11;;;;;;;8.38;4.40;;;;;;;14.86;79.93;98412.67;1767939;79;22206;-52
2021/05/03 00:24:38;;;;;;;3.77;2.85;;;;;;;14.86;80.04;98416.24;1766937;79;21104;-50
2021/05/03 00:27:06;;;;;;;7.97;4.80;;;;;;;14.86;79.89;98416.24;1768143;79;21116;-53
2021/05/03 00:29:36;;;;;;;8.50;5.10;;;;;;;14.86;79.87;98414.02;1766363;79;21412;-49
2021/05/03 00:32:05;;;;;;;9.55;6.08;;;;;;;14.83;79.90;98409.72;1766436;79;21106;-51
2021/05/03 00:34:32;;;;;;;10.95;5.05;;;;;;;14.83;79.82;98416.50;1766782;79;22297;-50
2021/05/03 00:36:59;;;;;;;5.95;2.83;;;;;;;14.83;79.74;98427.83;1764631;79;21207;-52
2021/05/03 00:39:26;;;;;;;9.75;3.50;;;;;;;14.82;79.75;98420.69;1763529;79;21198;-52
2021/05/03 00:41:54;;;;;;;6.40;3.02;;;;;;;14.81;79.68;98426.59;1769236;79;21170;-53
2021/05/03 00:44:22;;;;;;;6.15;2.67;;;;;;;14.80;79.61;98424.88;1763328;79;21180;-50
2021/05/03 00:46:52;;;;;;;11.85;3.35;;;;;;;14.80;79.50;98432.17;1738717;79;21502;-50
2021/05/03 00:49:20;;;;;;;7.08;2.60;;;;;;;14.79;79.40;98434.02;1737794;79;21729;-50
2021/05/03 00:51:47;;;;;;;6.05;3.20;;;;;;;14.79;79.40;98434.02;1768125;79;21186;-52
2021/05/03 00:54:15;;;;;;;5.65;4.03;;;;;;;14.78;78.95;98428.73;1761317;79;21184;-52
2021/05/03 00:56:42;;;;;;;2.30;1.87;;;;;;;14.70;78.04;98436.16;1753435;80;21167;-50
2021/05/03 00:59:09;;;;;;;2.52;1.90;;;;;;;14.70;78.04;98436.16;1755141;80;21564;-51
2021/05/03 01:01:37;;;;;;;2.70;1.50;;;;;;;14.68;77.90;98434.08;1753030;80;21516;-51
2021/05/03 01:04:05;;;;;;;2.17;1.40;;;;;;;14.64;77.28;98440.73;1755199;80;21221;-51
2021/05/03 01:06:32;;;;;;;4.12;1.85;;;;;;;14.64;77.28;98440.73;1755497;80;22238;-52
2021/05/03 01:08:59;;;;;;;2.42;1.62;;;;;;;14.61;77.12;98440.52;1756750;80;21167;-51
2021/05/03 01:11:26;;;;;;;3.30;1.92;;;;;;;14.59;76.93;98447.91;1756676;80;21528;-51
2021/05/03 01:13:54;;;;;;;4.12;1.37;;;;;;;14.56;76.72;98448.16;1754449;80;21156;-52
2021/05/03 01:16:21;;;;;;;1.30;1.05;;;;;;;14.50;76.36;98445.98;1761336;80;21649;-52
2021/05/03 01:18:49;;;;;;;2.20;1.05;;;;;;;14.46;75.90;98455.33;1756724;80;21544;-52
2021/05/03 01:21:25;;;;;;;1.15;0.98;;;;;;;14.39;75.36;98449.58;1755565;80;21212;-51
2021/05/03 01:23:53;;;;;;;3.45;1.20;;;;;;;14.35;75.09;98461.64;1758951;80;21386;-53
2021/05/03 01:26:21;;;;;;;2.17;1.15;;;;;;;14.28;74.77;98458.23;1758277;80;21119;-52
2021/05/03 01:28:48;;;;;;;2.02;1.02;;;;;;;14.28;74.30;98456.38;1758513;80;21594;-50
2021/05/03 01:31:16;;;;;;;1.12;0.90;;;;;;;14.22;73.76;98462.77;1753677;80;21196;-51
2021/05/03 01:33:43;;;;;;;1.25;0.80;;;;;;;14.13;73.25;98464.40;1755100;79;21195;-52
2021/05/03 01:36:12;;;;;;;1.20;0.70;;;;;;;14.07;72.59;98467.63;1756235;80;22320;-52
2021/05/03 01:38:39;;;;;;;1.05;0.60;;;;;;;13.89;71.05;98458.31;1752450;80;21181;-52
2021/05/03 01:41:06;;;;;;;0.70;0.70;;;;;;;13.89;71.05;98458.31;1754748;80;21211;-49
2021/05/03 01:43:34;;;;;;;3.37;0.60;;;;;;;13.83;70.47;98455.63;1755446;79;21683;-52
2021/05/03 01:46:01;;;;;;;0.60;0.50;;;;;;;13.74;70.00;98470.39;1754905;80;21093;-52
2021/05/03 01:48:30;;;;;;;0.50;0.50;;;;;;;13.64;68.65;98460.32;1751679;80;21621;-51
2021/05/03 01:50:58;;;;;;;0.62;0.57;;;;;;;13.58;68.25;98462.18;1755545;80;21198;-53
2021/05/03 01:53:26;;;;;;;0.60;0.50;;;;;;;13.51;67.67;98460.95;1752172;80;21176;-53
2021/05/03 01:55:56;;;;;;;0.62;0.50;;;;;;;13.43;67.14;98452.61;1733089;81;21239;-52
2021/05/03 01:58:25;;;;;;;1.90;0.60;;;;;;;13.32;67.02;98459.35;1734883;81;21207;-53
2021/05/03 02:00:52;;;;;;;0.80;0.60;;;;;;;13.23;67.16;98463.64;1733781;81;22216;-52
2021/05/03 02:03:23;;;;;;;2.47;0.50;;;;;;;13.20;67.33;98476.03;1735054;81;21665;-52
2021/05/03 02:05:51;;;;;;;0.98;0.50;;;;;;;13.16;67.45;98476.41;1736784;81;21195;-53
2021/05/03 02:08:18;;;;;;;0.98;0.60;;;;;;;13.11;67.61;98475.86;1732792;81;21179;-53
2021/05/03 02:10:45;;;;;;;1.20;0.55;;;;;;;13.07;67.59;98478.45;1693305;82;21755;-53
2021/05/03 02:13:14;;;;;;;0.93;0.50;;;;;;;13.00;67.52;98483.48;1684817;83;21695;-53
2021/05/03 02:15:42;;;;;;;0.60;0.60;;;;;;;12.92;67.57;98483.22;1683199;83;22374;-53
2021/05/03 02:18:10;;;;;;;0.75;0.50;;;;;;;12.87;67.69;98498.91;1683316;83;21199;-53
2021/05/03 02:20:37;;;;;;;1.00;0.55;;;;;;;12.78;67.81;98501.82;1683660;83;21248;-53
2021/05/03 02:23:05;;;;;;;0.57;0.50;;;;;;;12.72;67.72;98496.04;1682687;83;21190;-52
2021/05/03 02:25:33;;;;;;;0.60;0.42;;;;;;;12.67;67.78;98504.99;1683736;83;21257;-53
2021/05/03 02:28:03;;;;;;;1.30;0.57;;;;;;;12.62;67.70;98503.97;1683670;83;21198;-52
2021/05/03 02:30:30;;;;;;;0.62;0.40;;;;;;;12.60;67.71;98510.45;1687074;83;21136;-53
2021/05/03 02:32:57;;;;;;;2.72;0.53;;;;;;;12.58;67.64;98515.14;1687221;83;21691;-53
2021/05/03 02:35:28;;;;;;;0.80;0.42;;;;;;;12.56;67.43;98531.45;1686563;83;21133;-52
2021/05/03 02:37:57;;;;;;;0.60;0.50;;;;;;;12.51;67.36;98518.28;1737454;81;21804;-53
2021/05/03 02:40:26;;;;;;;1.02;0.60;;;;;;;12.44;67.42;98515.67;1734927;81;21166;-52
2021/05/03 02:42:56;;;;;;;0.88;0.60;;;;;;;12.39;67.50;98527.80;1735829;81;21783;-53
2021/05/03 02:45:23;;;;;;;0.50;0.40;;;;;;;12.31;67.49;98531.08;1734906;81;21147;-52
2021/05/03 02:47:51;;;;;;;0.40;0.40;;;;;;;12.25;67.59;98534.73;1734348;81;21622;-53
2021/05/03 02:50:19;;;;;;;1.32;0.40;;;;;;;12.18;67.80;98539.69;1735017;81;21520;-52
2021/05/03 02:52:47;;;;;;;0.80;0.45;;;;;;;12.16;67.77;98548.41;1697686;82;21156;-52
2021/05/03 02:55:14;;;;;;;0.60;0.40;;;;;;;12.13;67.74;98551.31;1685793;83;21224;-53
2021/05/03 02:57:43;;;;;;;2.47;0.50;;;;;;;12.09;67.63;98564.64;1683664;83;21133;-52
2021/05/03 03:00:14;;;;;;;0.50;0.40;;;;;;;12.05;67.67;98566.72;1693139;82;21172;-53
2021/05/03 03:02:41;;;;;;;1.47;0.42;;;;;;;11.99;67.54;98570.36;1686748;83;21216;-53
2021/05/03 03:05:09;;;;;;;0.60;0.40;;;;;;;11.92;67.46;98575.79;1664901;84;21710;-53
2021/05/03 03:07:36;;;;;;;2.27;0.40;;;;;;;11.83;67.63;98577.80;1659272;84;21171;-53
2021/05/03 03:10:04;;;;;;;0.35;0.30;;;;;;;11.73;67.53;98586.54;1727191;81;21129;-52
2021/05/03 03:12:33;;;;;;;0.42;0.40;;;;;;;11.67;67.29;98595.04;1726501;81;21113;-53
2021/05/03 03:15:08;;;;;;;0.50;0.30;;;;;;;11.64;67.16;98601.16;1723547;81;21754;-52
2021/05/03 03:17:35;;;;;;;;;;;;;;;11.59;67.03;98615.42;1729567;81;21534;-52
2021/05/03 03:20:07;;;;;;;0.70;0.37;;;;;;;11.54;66.95;98614.41;1730904;81;20268;-53
2021/05/03 03:22:36;;;;;;;0.55;0.40;;;;;;;11.48;67.01;98618.02;1727146;81;21549;-53
2021/05/03 03:25:04;;;;;;;0.98;0.40;;;;;;;11.43;67.07;98615.63;1728441;81;21114;-53
2021/05/03 03:27:32;;;;;;;0.70;0.40;;;;;;;11.40;67.20;98632.00;1726975;81;21341;-53
2021/05/03 03:29:59;;;;;;;1.95;0.30;;;;;;;11.30;67.11;98626.41;1725011;81;21190;-53
2021/05/03 03:32:27;;;;;;;0.70;0.40;;;;;;;11.22;67.21;98634.64;1724761;81;21586;-52
2021/05/03 03:34:54;;;;;;;2.30;0.42;;;;;;;11.12;67.16;98633.05;1723563;81;21210;-53
2021/05/03 03:37:22;;;;;;;3.30;0.30;;;;;;;11.07;67.32;98634.31;1724595;81;21177;-53
2021/05/03 03:39:50;;;;;;;5.20;0.40;;;;;;;11.06;67.41;98628.06;1725907;81;21215;-53
2021/05/03 03:42:17;;;;;;;0.45;0.35;;;;;;;11.06;67.10;98633.96;1723435;81;21675;-53
2021/05/03 03:44:44;;;;;;;0.40;0.30;;;;;;;11.04;66.89;98636.75;1726401;81;21185;-53
2021/05/03 03:47:11;;;;;;;0.90;0.40;;;;;;;11.06;66.47;98639.34;1724623;81;21201;-52
2021/05/03 03:49:40;;;;;;;0.85;0.40;;;;;;;11.01;65.88;98639.64;1726513;81;21215;-52
2021/05/03 03:52:07;;;;;;;0.68;0.50;;;;;;;10.94;65.72;98655.84;1728085;81;21391;-53
2021/05/03 03:54:34;;;;;;;0.88;0.40;;;;;;;10.86;65.44;98663.08;1731952;80;21725;-53
2021/05/03 03:57:02;;;;;;;3.50;0.40;;;;;;;10.79;65.11;98660.90;1765084;80;21628;-52
2021/05/03 03:59:32;;;;;;;0.50;0.40;;;;;;;10.72;64.93;98668.49;1764321;80;21159;-51
2021/05/03 04:01:58;;;;;;;0.50;0.30;;;;;;;10.65;65.01;98668.52;1763687;80;21203;-53
2021/05/03 04:04:27;;;;;;;0.50;0.30;;;;;;;10.61;64.87;98675.95;1765804;80;21469;-53
2021/05/03 04:07:04;;;;;;;0.55;0.30;;;;;;;10.64;64.66;98672.17;1764973;80;21646;-52
2021/05/03 04:09:35;;;;;;;0.33;0.30;;;;;;;10.71;64.61;98684.77;1762718;80;21660;-52
2021/05/03 04:23:07;;;;;;;0.68;0.30;;;;;;;12.49;60.56;98679.98;1763761;80;21179;-52
2021/05/03 04:25:35;;;;;;;1.32;0.20;;;;;;;12.93;58.58;98690.70;1765318;80;21184;-52
2021/05/03 04:28:00;;;;;;;0.20;0.20;;;;;;;13.04;57.46;98706.45;1718696;81;21189;-53
2021/05/03 04:30:27;;;;;;;0.42;0.20;;;;;;;12.95;56.67;98704.92;1706039;82;22229;-52
2021/05/03 04:32:56;;;;;;;0.20;0.20;;;;;;;12.88;56.41;98716.20;1706717;82;21168;-52
2021/05/03 04:35:23;;;;;;;0.47;0.20;;;;;;;12.79;56.19;98716.88;1706943;82;21201;-52
2021/05/03 04:37:51;;;;;;;0.30;0.20;;;;;;;12.60;56.46;98715.62;1704150;82;21215;-52
2021/05/03 04:40:18;;;;;;;0.33;0.20;;;;;;;12.41;56.67;98712.06;1703976;82;20982;-53
2021/05/03 04:42:45;;;;;;;0.35;0.23;;;;;;;12.21;57.23;98720.71;1706312;82;21262;-53
2021/05/03 04:45:15;;;;;;;0.90;0.30;;;;;;;12.03;57.33;98718.34;1708858;82;21149;-53
2021/05/03 04:47:42;;;;;;;0.30;0.30;;;;;;;11.83;57.69;98726.09;1705166;83;21143;-52
2021/05/03 04:50:10;;;;;;;0.40;0.20;;;;;;;11.69;58.39;98741.84;1705943;83;21610;-53
2021/05/03 04:52:37;;;;;;;1.85;0.20;;;;;;;11.64;58.62;98741.31;1704847;83;21569;-52
2021/05/03 04:55:05;;;;;;;0.85;0.20;;;;;;;11.61;58.99;98743.73;1695408;83;21442;-53
2021/05/03 04:57:32;;;;;;;2.33;0.20;;;;;;;11.59;59.09;98728.61;1734271;81;21192;-52
2021/05/03 05:00:00;;;;;;;0.75;0.20;;;;;;;11.56;59.03;98734.23;1731521;81;21437;-52
2021/05/03 05:02:28;;;;;;;0.33;0.20;;;;;;;11.47;59.10;98738.42;1730424;81;21903;-53
2021/05/03 05:04:55;;;;;;;13.22;0.50;;;;;;;11.45;59.56;98743.05;1729783;81;21191;-53
2021/05/03 05:09:28;;;;;;;0.53;0.23;;;;;;;11.58;59.82;98759.23;1747804;78;22655;-52
2021/05/03 05:11:55;;;;;;;1.95;0.10;;;;;;;11.62;59.59;98752.19;1725268;80;21504;-53
2021/05/03 05:14:22;;;;;;;0.30;0.20;;;;;;;11.69;59.47;98756.19;1725001;80;21637;-53
2021/05/03 05:16:50;;;;;;;1.37;0.20;;;;;;;11.77;59.17;98754.34;1724871;80;21473;-53
2021/05/03 05:19:17;;;;;;;0.88;0.20;;;;;;;11.81;58.31;98749.14;1726912;80;21167;-53
2021/05/03 05:21:44;;;;;;;1.57;0.10;;;;;;;11.82;58.13;98762.14;1723579;80;21120;-52
2021/05/03 05:24:12;;;;;;;0.23;0.10;;;;;;;11.82;57.76;98746.83;1692099;82;21210;-53
2021/05/03 05:26:40;;;;;;;0.25;0.10;;;;;;;11.83;57.65;98732.34;1686759;82;21464;-52
2021/05/03 05:29:07;;;;;;;0.70;0.10;;;;;;;11.86;57.63;98732.62;1686641;82;21012;-53
2021/05/03 05:31:35;;;;;;;0.17;0.10;;;;;;;11.86;57.49;98725.89;1685558;82;21479;-53
2021/05/03 05:34:02;;;;;;;2.00;0.10;;;;;;;11.87;57.06;98727.13;1685115;82;21183;-53
2021/05/03 05:36:30;;;;;;;0.10;0.10;;;;;;;11.87;57.05;98728.48;1687495;82;21157;-53
2021/05/03 05:38:59;;;;;;;1.37;0.20;;;;;;;11.89;57.30;98724.34;1687265;82;21402;-53
2021/05/03 05:41:27;;;;;;;0.20;0.10;;;;;;;11.92;57.19;98730.36;1682252;82;21203;-53
2021/05/03 05:43:54;;;;;;;0.42;0.10;;;;;;;11.96;56.88;98752.11;1675915;83;21593;-53
2021/05/03 05:46:21;;;;;;;0.95;0.10;;;;;;;12.00;56.34;98743.30;1674595;83;21138;-53
2021/05/03 05:48:48;;;;;;;1.25;0.30;;;;;;;11.98;56.23;98740.74;1668167;83;21144;-53
2021/05/03 05:51:16;;;;;;;0.20;0.13;;;;;;;11.95;55.97;98751.73;1669720;83;21598;-54
2021/05/03 05:53:43;;;;;;;2.55;0.10;;;;;;;11.94;55.82;98754.05;1671514;84;21159;-53
2021/05/03 05:56:10;;;;;;;0.20;0.10;;;;;;;11.93;55.97;98755.01;1670265;83;21159;-54
2021/05/03 05:58:38;;;;;;;3.10;0.20;;;;;;;11.94;56.02;98745.09;1675184;83;21116;-54
2021/05/03 06:01:05;;;;;;;1.75;0.15;;;;;;;11.93;55.67;98750.97;1669956;83;21114;-54
2021/05/03 06:03:32;;;;;;;0.10;0.10;;;;;;;11.91;55.69;98760.98;1669598;83;22075;-53
2021/05/03 06:06:00;;;;;;;0.25;0.10;;;;;;;11.92;55.83;98773.51;1703763;82;21183;-53
2021/05/03 06:08:27;;;;;;;0.20;0.20;;;;;;;11.92;55.65;98750.58;1697552;82;21096;-53
2021/05/03 06:10:54;;;;;;;0.30;0.10;;;;;;;11.94;55.68;98772.05;1682027;83;21124;-53
2021/05/03 06:13:22;;;;;;;0.47;0.37;;;;;;;11.98;55.88;98780.33;1711521;82;21163;-53
2021/05/03 06:15:50;;;;;;;0.20;0.10;;;;;;;12.03;55.95;98774.98;1710760;82;21570;-53
2021/05/03 06:18:18;;;;;;;0.45;0.10;;;;;;;12.09;55.71;98775.03;1709863;82;21155;-53
2021/05/03 06:20:45;;;;;;;2.83;0.10;;;;;;;12.12;55.79;98781.57;1707530;82;21155;-53
2021/05/03 06:23:13;;;;;;;0.20;0.00;;;;;;;12.16;55.18;98790.33;1706703;82;21206;-53
2021/05/03 06:25:41;;;;;;;0.93;0.10;;;;;;;12.17;54.94;98797.42;1704166;82;21186;-53
2021/05/03 06:28:08;;;;;;;0.28;0.10;;;;;;;12.16;54.73;98796.59;1705034;82;23550;-52
2021/05/03 06:30:37;;;;;;;0.72;0.10;;;;;;;12.13;54.92;98803.05;1706562;82;21612;-53
2021/05/03 06:33:05;;;;;;;0.50;0.10;;;;;;;12.14;55.11;98822.80;1707143;82;21195;-53
2021/05/03 06:35:33;;;;;;;0.17;0.10;;;;;;;12.19;55.61;98824.68;1704793;82;21213;-54
2021/05/03 06:38:00;;;;;;;2.40;0.10;;;;;;;12.25;55.39;98824.77;1706204;82;21210;-53
2021/05/03 06:40:28;;;;;;;0.95;0.10;;;;;;;12.27;55.05;98843.03;1706696;82;21402;-53
2021/05/03 06:42:55;;;;;;;0.15;0.10;;;;;;;12.29;55.07;98839.27;1705741;82;21353;-53
2021/05/03 06:45:22;;;;;;;0.20;0.20;;;;;;;12.34;54.84;98841.14;1706099;82;21215;-53
2021/05/03 06:47:50;;;;;;;1.82;0.10;;;;;;;12.39;55.09;98834.96;1707601;82;21103;-54
2021/05/03 06:50:18;;;;;;;0.30;0.20;;;;;;;12.44;54.88;98835.48;1708841;82;21182;-53
2021/05/03 06:52:46;;;;;;;1.50;0.17;;;;;;;12.45;54.35;98844.45;1707329;82;21409;-53
2021/05/03 06:55:14;;;;;;;0.30;0.10;;;;;;;12.41;54.21;98847.00;1708576;82;21203;-53
2021/05/03 06:57:42;;;;;;;0.30;0.10;;;;;;;12.40;54.43;98843.92;1709942;82;21658;-53
2021/05/03 07:00:11;;;;;;;0.82;0.15;;;;;;;12.38;54.24;98856.66;1706700;82;21195;-53
2021/05/03 07:02:39;;;;;;;1.65;0.20;;;;;;;12.34;53.93;98847.89;1708197;82;21154;-53
2021/05/03 07:05:09;;;;;;;0.37;0.20;;;;;;;12.30;54.31;98863.94;1705077;82;21544;-53
2021/05/03 07:07:37;;;;;;;0.60;0.20;;;;;;;12.26;54.25;98869.63;1711405;82;21551;-53
2021/05/03 07:10:05;;;;;;;1.07;0.20;;;;;;;12.21;54.44;98865.05;1716964;81;21140;-53
2021/05/03 07:12:36;;;;;;;0.60;0.20;;;;;;;12.17;54.55;98871.13;1718686;81;21179;-53
2021/05/03 07:15:07;;;;;;;1.17;0.20;;;;;;;12.12;54.18;98870.11;1714652;81;21216;-53
2021/05/03 07:17:34;;;;;;;3.10;0.10;;;;;;;12.05;54.24;98874.20;1717770;81;22121;-53
2021/05/03 07:20:02;;;;;;;0.10;0.10;;;;;;;12.05;54.35;98880.95;1718208;81;21217;-53
2021/05/03 07:22:29;;;;;;;0.20;0.10;;;;;;;12.01;54.08;98878.54;1716269;81;21178;-53
2021/05/03 07:24:56;;;;;;;1.32;0.10;;;;;;;11.99;54.15;98867.84;1716486;81;21210;-53
2021/05/03 07:27:24;;;;;;;0.10;0.10;;;;;;;11.97;54.57;98875.20;1715963;81;21504;-53
2021/05/03 07:29:52;;;;;;;0.23;0.10;;;;;;;11.98;54.79;98874.72;1713714;81;23231;-53
2021/05/03 07:32:19;;;;;;;1.10;0.10;;;;;;;12.00;54.88;98872.28;1714705;81;21218;-54
2021/05/03 07:34:48;;;;;;;0.20;0.10;;;;;;;12.04;55.09;98879.69;1681574;83;21224;-53
2021/05/03 07:37:15;;;;;;;1.27;0.20;;;;;;;12.05;55.16;98880.95;1660293;84;21189;-54
2021/05/03 07:39:44;;;;;;;0.68;0.13;;;;;;;12.05;55.05;98896.27;1680738;84;21203;-54
2021/05/03 07:42:11;;;;;;;0.30;0.20;;;;;;;11.99;55.28;98881.85;1677503;83;21205;-54
2021/05/03 07:44:41;;;;;;;1.75;0.20;;;;;;;11.96;55.58;98880.22;1673022;83;21204;-53
2021/05/03 07:47:08;;;;;;;0.35;0.17;;;;;;;11.94;55.89;98882.14;1681497;83;21184;-53
2021/05/03 07:49:39;;;;;;;0.20;0.10;;;;;;;11.95;55.86;98900.54;1681241;83;21117;-53
2021/05/03 07:52:05;;;;;;;0.45;0.20;;;;;;;11.94;55.52;98894.28;1682406;84;21164;-53
2021/05/03 07:54:34;;;;;;;0.20;0.10;;;;;;;11.92;55.14;98881.37;1683553;83;21889;-53
2021/05/03 07:57:01;;;;;;;0.10;0.10;;;;;;;11.94;54.91;98872.70;1680882;83;21200;-54
2021/05/03 07:59:29;;;;;;;2.72;0.10;;;;;;;11.93;54.84;98885.80;1679990;83;21195;-54
2021/05/03 08:01:56;;;;;;;0.45;0.10;;;;;;;11.90;54.74;98890.08;1678283;83;21495;-53
2021/05/03 08:04:23;;;;;;;3.92;0.15;;;;;;;11.85;54.87;98894.89;1678501;84;21165;-53
2021/05/03 08:09:28;;;;;;;1.05;0.20;;;;;;;11.81;54.53;98908.70;1852649;75;27883;-53
2021/05/03 08:11:55;;;;;;;1.30;0.20;;;;;;;11.76;54.43;98922.47;1844454;76;21592;-53
2021/05/03 08:14:22;;;;;;;0.95;0.20;;;;;;;11.81;54.28;98917.66;1841165;76;21352;-54
2021/05/03 08:16:54;;;;;;;0.25;0.10;;;;;;;11.85;53.80;98917.81;1839115;76;22112;-54
2021/05/03 08:19:19;;;;;;;0.20;0.10;;;;;;;11.89;53.56;98918.01;1837271;76;21937;-54
2021/05/03 08:21:49;;;;;;;0.30;0.10;;;;;;;11.91;52.83;98926.83;1841085;76;21472;-54
2021/05/03 08:24:16;;;;;;;0.60;0.10;;;;;;;11.88;52.50;98920.31;1842938;76;21738;-54
2021/05/03 08:26:43;;;;;;;0.30;0.20;;;;;;;11.86;52.58;98921.38;1845745;76;22107;-53
2021/05/03 08:29:10;;;;;;;0.20;0.20;;;;;;;11.80;52.63;98912.36;1837227;76;21367;-55
2021/05/03 08:31:38;;;;;;;1.47;0.20;;;;;;;11.82;53.34;98917.17;1839271;76;21397;-54
2021/05/03 08:34:05;;;;;;;0.20;0.13;;;;;;;11.90;53.71;98916.17;1838453;76;21174;-54
2021/05/03 08:36:35;;;;;;;0.20;0.20;;;;;;;11.98;53.35;98928.19;1780383;78;21711;-54
2021/05/03 08:39:04;;;;;;;0.20;0.20;;;;;;;12.02;52.74;98905.89;1803036;78;21521;-54
2021/05/03 08:41:33;;;;;;;0.25;0.20;;;;;;;12.02;52.18;98909.46;1766881;79;22084;-54
2021/05/03 08:44:01;;;;;;;0.62;0.20;;;;;;;12.05;52.23;98906.56;1784109;78;21531;-53
2021/05/03 08:46:30;;;;;;;0.40;0.20;;;;;;;12.03;52.00;98904.45;1783966;78;21087;-54
2021/05/03 08:49:05;;;;;;;2.98;0.20;;;;;;;11.98;52.18;98924.13;1752705;80;21099;-54
2021/05/03 08:51:39;;;;;;;1.05;0.20;;;;;;;11.97;51.83;98925.09;1784557;78;21558;-54
2021/05/03 08:56:40;;;;;;;1.13;0.20;;;;;;;12.18;52.17;98912.46;1867507;75;23701;-54
2021/05/03 08:59:07;;;;;;;0.30;0.30;;;;;;;12.23;51.77;98939.53;1838894;76;21414;-54
2021/05/03 09:01:34;;;;;;;0.93;0.10;;;;;;;12.33;50.81;98935.73;1837034;76;22150;-54
2021/05/03 09:04:03;;;;;;;1.80;0.28;;;;;;;12.41;51.11;98936.06;1779502;78;21147;-54
2021/05/03 09:06:31;;;;;;;0.20;0.20;;;;;;;12.52;51.11;98918.63;1804036;78;20953;-54
2021/05/03 09:09:05;;;;;;;0.20;0.17;;;;;;;12.64;50.67;98927.23;1802500;78;21435;-55
2021/05/03 09:11:34;;;;;;;0.90;0.30;;;;;;;12.65;49.60;98920.00;1801513;78;21341;-54
2021/05/03 09:14:12;;;;;;;0.95;0.20;;;;;;;12.62;49.91;98937.27;1797411;78;21745;-54
2021/05/03 09:16:45;;;;;;;0.40;0.20;;;;;;;12.59;49.89;98938.82;1801234;78;21444;-54
2021/05/03 09:19:14;;;;;;;2.00;0.20;;;;;;;12.56;49.14;98939.05;1780363;78;20982;-54
2021/05/03 09:21:42;;;;;;;2.50;0.30;;;;;;;12.44;49.49;98934.48;1768982;79;21484;-54
2021/05/03 09:24:15;;;;;;;0.60;0.20;;;;;;;12.37;50.09;98916.51;1802157;78;21099;-55
2021/05/03 09:26:55;;;;;;;1.87;0.33;;;;;;;12.41;50.86;98919.39;1761646;79;21208;-54
2021/05/03 09:29:34;;;;;;;0.30;0.30;;;;;;;12.53;50.24;98924.41;1746176;79;21008;-55
2021/05/03 09:32:11;;;;;;;0.40;0.30;;;;;;;12.63;50.26;98920.59;1777814;79;21107;-54
2021/05/03 09:34:51;;;;;;;0.90;0.30;;;;;;;12.73;49.69;98918.49;1772629;79;21198;-54
2021/05/03 09:37:27;;;;;;;0.30;0.20;;;;;;;12.82;49.37;98922.38;1772698;79;21214;-54
2021/05/03 09:40:12;;;;;;;1.90;0.40;;;;;;;12.88;49.55;98914.70;1772261;79;21451;-54
2021/05/03 09:42:44;;;;;;;0.55;0.20;;;;;;;12.98;49.65;98926.21;1759346;79;21178;-54
2021/05/03 09:45:17;;;;;;;3.95;0.30;;;;;;;13.08;49.54;98924.59;1750848;80;21166;-54
2021/05/03 09:47:45;;;;;;;0.65;0.30;;;;;;;13.17;48.78;98934.29;1754957;80;21115;-53
2021/05/03 09:50:16;;;;;;;0.50;0.30;;;;;;;13.22;48.36;98935.30;1756418;80;21005;-54
2021/05/03 09:53:05;;;;;;;0.60;0.30;;;;;;;13.21;48.27;98925.45;1750966;80;22587;-55
2021/05/03 09:55:46;;;;;;;0.60;0.20;;;;;;;13.26;48.29;98930.06;1751155;80;21470;-54
2021/05/03 09:58:21;;;;;;;1.75;0.20;;;;;;;13.24;47.36;98942.33;1750940;79;22111;-54
2021/05/03 10:00:53;;;;;;;1.55;0.25;;;;;;;13.15;47.52;98945.69;1752967;79;21239;-53
2021/05/03 10:03:45;;;;;;;2.22;0.20;;;;;;;13.07;47.46;98954.80;1755410;80;21123;-55
2021/05/03 10:06:16;;;;;;;0.28;0.20;;;;;;;12.95;47.63;98964.23;1752193;79;21215;-54
2021/05/03 10:08:48;;;;;;;0.47;0.15;;;;;;;12.92;48.10;98961.28;1751022;80;21277;-54
2021/05/03 10:11:17;;;;;;;0.40;0.20;;;;;;;12.94;48.33;98981.41;1753530;80;21199;-54
2021/05/03 10:13:48;;;;;;;0.30;0.20;;;;;;;12.99;48.05;98967.11;1754617;80;21194;-54
2021/05/03 10:16:15;;;;;;;0.20;0.20;;;;;;;13.02;48.86;98966.88;1751243;80;21181;-53
2021/05/03 10:18:43;;;;;;;4.22;0.20;;;;;;;13.14;48.44;98970.11;1754283;80;21955;-52
2021/05/03 10:21:14;;;;;;;1.98;0.30;;;;;;;13.24;48.17;98969.84;1749506;80;21743;-52
2021/05/03 10:23:44;;;;;;;3.62;0.20;;;;;;;13.25;47.53;98970.22;1780378;78;21186;-53
2021/05/03 10:26:11;;;;;;;4.25;0.28;;;;;;;13.21;47.25;98961.45;1777037;78;21194;-54
2021/05/03 10:28:57;;;;;;;2.33;0.20;;;;;;;13.13;46.96;98965.19;1776275;78;21182;-51
2021/05/03 10:31:24;;;;;;;1.53;0.30;;;;;;;13.03;47.70;98971.31;1777892;78;21843;-53
2021/05/03 10:33:52;;;;;;;0.40;0.30;;;;;;;12.96;47.58;98965.97;1778070;78;21704;-53
2021/05/03 10:36:37;;;;;;;0.28;0.20;;;;;;;12.87;47.58;98981.84;1780819;79;21531;-53
2021/05/03 10:39:30;;;;;;;2.58;0.30;;;;;;;12.76;47.51;98975.48;1747576;80;21119;-54
2021/05/03 10:42:07;;;;;;;0.20;0.20;;;;;;;12.69;48.29;98975.02;1746300;80;21250;-51
2021/05/03 10:44:37;;;;;;;0.20;0.20;;;;;;;12.70;48.73;98971.83;1746438;80;22264;-53
2021/05/03 10:53:30;;;;;;;0.70;0.30;;;;;;;13.11;48.58;98960.34;1853035;75;27726;-52
2021/05/03 10:55:59;;;;;;;0.47;0.30;;;;;;;13.26;48.11;98954.39;1844026;76;21434;-53
2021/05/03 10:58:26;;;;;;;0.30;0.28;;;;;;;13.39;47.39;98970.08;1843903;76;21808;-54
2021/05/03 11:01:02;;;;;;;3.40;0.30;;;;;;;13.46;47.21;98977.25;1847425;76;21850;-52
2021/05/03 11:03:58;;;;;;;0.50;0.33;;;;;;;13.46;47.39;98967.31;1844902;76;21570;-52
2021/05/03 11:06:46;;;;;;;2.70;0.40;;;;;;;13.55;47.92;98987.41;1844351;76;21337;-53
2021/05/03 11:09:32;;;;;;;0.55;0.50;;;;;;;13.67;46.79;98964.90;1846127;76;21175;-52
2021/05/03 11:12:09;;;;;;;0.20;0.20;;;;;;;13.68;47.07;98972.04;1844718;76;21975;-53
2021/05/03 11:14:41;;;;;;;0.95;0.30;;;;;;;13.67;46.77;98966.73;1839546;76;21338;-52
2021/05/03 11:17:10;;;;;;;0.30;0.30;;;;;;;13.63;46.42;98961.54;1839256;76;21210;-52
2021/05/03 11:22:25;;;;;;;0.82;0.20;;;;;;;13.49;47.29;98971.16;1813977;76;21562;-53
2021/05/03 11:24:56;;;;;;;0.72;0.20;;;;;;;13.51;46.52;98954.34;1843990;76;21635;-52
2021/05/03 11:30:31;;;;;;;0.17;0.10;;;;;;;13.58;45.19;98962.86;1840296;76;21147;-52
2021/05/03 11:41:22;;;;;;;0.40;0.30;;;;;;;13.69;45.64;98967.02;1867369;75;23209;-53
2021/05/03 11:46:14;;;;;;;5.78;0.40;;;;;;;13.69;44.92;98953.48;1805543;78;21768;-53
2021/05/03 11:48:42;;;;;;;5.62;0.80;;;;;;;13.71;45.22;98970.44;1783912;78;21007;-54
2021/05/03 11:51:13;;;;;;;2.67;0.23;;;;;;;13.78;45.14;98964.95;1768569;79;21116;-54
2021/05/03 11:53:42;;;;;;;4.92;0.40;;;;;;;13.83;44.42;98965.50;1774580;78;21120;-52
2021/05/03 11:56:29;;;;;;;4.42;0.30;;;;;;;13.86;44.58;98965.28;1767268;79;21505;-54
2021/05/03 11:58:58;;;;;;;1.65;0.23;;;;;;;13.88;44.72;98967.84;1774225;79;21952;-52
2021/05/03 12:01:29;;;;;;;3.10;0.25;;;;;;;13.87;44.55;98963.41;1780224;78;21368;-51
2021/05/03 12:04:00;;;;;;;3.00;0.20;;;;;;;13.88;44.71;98971.41;1771891;79;21063;-53
2021/05/03 12:06:38;;;;;;;4.67;0.30;;;;;;;13.86;44.21;98963.06;1768107;79;21115;-53
2021/05/03 12:09:09;;;;;;;1.45;0.30;;;;;;;13.84;44.31;98963.66;1781868;78;21100;-53
2021/05/03 12:11:42;;;;;;;2.22;0.30;;;;;;;13.84;43.82;98960.95;1799472;78;21338;-54
2021/05/03 12:14:10;;;;;;;3.22;0.20;;;;;;;13.81;43.97;98963.38;1759474;79;21111;-52
2021/05/03 12:16:39;;;;;;;6.03;0.40;;;;;;;13.82;43.83;98966.95;1772099;80;21107;-53
2021/05/03 12:19:17;;;;;;;5.03;0.30;;;;;;;13.82;43.57;98961.55;1778563;79;21570;-51
2021/05/03 12:21:45;;;;;;;1.02;0.20;;;;;;;13.74;43.69;98985.59;1772696;79;21107;-55
2021/05/03 12:24:17;;;;;;;1.82;0.20;;;;;;;13.68;43.39;98982.86;1746089;80;22277;-54